Time;durP1;ratioP1;P1;durP2;ratioP2;P2;SDS_P1;SDS_P2;PMS_P1;PMS_P2;Temp;Humidity;BMP_temperature;BMP_pressure;BME280_temperature;BME280_humidity;BME280_pressure;Samples;Min_cycle;Max_cycle;Signal;HPM_P1;HPM_P2
2022/01/07 00:02:00;;;;;;;12.10;5.53;;;;;;;-3.75;100.00;96520.75;5025167;28;20520;-79
2022/01/07 00:04:27;;;;;;;16.80;6.07;;;;;;;-3.76;100.00;96524.19;5030218;28;20456;-79
2022/01/07 00:06:53;;;;;;;12.80;5.40;;;;;;;-3.81;100.00;96521.81;5034497;28;20475;-79
2022/01/07 00:09:19;;;;;;;12.97;5.87;;;;;;;-3.81;100.00;96514.94;5044832;28;20472;-79
2022/01/07 00:11:45;;;;;;;13.83;5.97;;;;;;;-3.84;100.00;96516.81;5037048;28;20025;-78
2022/01/07 00:14:11;;;;;;;15.73;7.47;;;;;;;-3.83;100.00;96510.75;5018766;28;20606;-79
2022/01/07 00:16:37;;;;;;;22.47;7.97;;;;;;;-3.83;100.00;96503.06;5038516;28;20460;-79
2022/01/07 00:19:03;;;;;;;18.10;7.60;;;;;;;-3.84;100.00;96506.53;5033643;28;20479;-79
2022/01/07 00:21:32;;;;;;;15.93;7.07;;;;;;;-3.88;100.00;96492.97;5023989;28;21033;-79
2022/01/07 00:23:58;;;;;;;16.10;6.60;;;;;;;-3.87;100.00;96493.81;5039697;28;20470;-79
2022/01/07 00:26:24;;;;;;;15.80;6.47;;;;;;;-3.84;100.00;96491.13;5027821;28;20460;-79
2022/01/07 00:28:50;;;;;;;16.90;6.80;;;;;;;-3.84;100.00;96491.13;5029444;28;20042;-79
2022/01/07 00:31:17;;;;;;;19.63;7.67;;;;;;;-3.79;100.00;96489.16;5016488;28;20475;-79
2022/01/07 00:33:42;;;;;;;14.77;7.83;;;;;;;-3.79;100.00;96481.47;5015663;28;20467;-79
2022/01/07 00:36:09;;;;;;;19.00;7.27;;;;;;;-3.82;100.00;96474.75;5016963;28;20502;-79
2022/01/07 00:38:40;;;;;;;15.40;7.33;;;;;;;-3.88;100.00;96480.13;5031556;28;20116;-79
2022/01/07 00:41:07;;;;;;;16.40;7.30;;;;;;;-3.92;100.00;96475.22;5045203;28;20460;-79
2022/01/07 00:43:33;;;;;;;17.50;7.37;;;;;;;-3.91;100.00;96475.13;5032498;28;20479;-79
2022/01/07 00:45:59;;;;;;;17.73;7.53;;;;;;;-3.94;100.00;96477.00;5037637;28;20455;-79
2022/01/07 00:48:24;;;;;;;21.00;7.13;;;;;;;-3.95;100.00;96477.91;5044080;28;20040;-79
2022/01/07 00:50:51;;;;;;;12.87;6.27;;;;;;;-3.99;100.00;96481.47;5018685;28;20538;-79
2022/01/07 00:53:17;;;;;;;17.37;7.57;;;;;;;-3.99;100.00;96484.91;5018702;28;20064;-79
2022/01/07 00:55:43;;;;;;;15.17;7.60;;;;;;;-4.03;100.00;96480.78;5042354;28;20445;-79
2022/01/07 00:58:09;;;;;;;16.33;6.83;;;;;;;-4.05;100.00;96475.72;5015850;28;20574;-79
2022/01/07 01:00:35;;;;;;;17.23;6.90;;;;;;;-4.05;100.00;96480.03;5036568;28;20479;-79
2022/01/07 01:03:01;;;;;;;15.23;6.40;;;;;;;-4.03;100.00;96483.34;5045726;28;20115;-79
2022/01/07 01:05:28;;;;;;;17.20;7.27;;;;;;;-4.06;100.00;96473.19;5013718;28;20513;-79
2022/01/07 01:07:59;;;;;;;21.03;7.43;;;;;;;-4.08;100.00;96473.28;5036086;28;20798;-79
2022/01/07 01:10:26;;;;;;;14.80;6.73;;;;;;;-4.13;100.00;96471.78;5021101;28;20463;-79
2022/01/07 01:12:53;;;;;;;19.80;8.07;;;;;;;-4.15;100.00;96476.16;5012188;28;20464;-79
2022/01/07 01:15:23;;;;;;;18.73;7.60;;;;;;;-4.19;100.00;96467.75;5020286;28;20806;-78
2022/01/07 01:17:50;;;;;;;20.63;8.27;;;;;;;-4.19;100.00;96470.31;5017078;28;20436;-79
2022/01/07 01:20:16;;;;;;;22.10;7.93;;;;;;;-4.21;100.00;96463.56;5022232;28;20449;-79
2022/01/07 01:22:42;;;;;;;18.07;6.87;;;;;;;-4.16;100.00;96464.22;5028293;28;20448;-79
2022/01/07 01:25:09;;;;;;;20.63;7.57;;;;;;;-4.19;100.00;96465.19;5008428;28;20470;-79
2022/01/07 01:27:35;;;;;;;20.00;7.17;;;;;;;-4.17;100.00;96467.69;5039087;28;20036;-79
2022/01/07 01:30:04;;;;;;;14.57;7.00;;;;;;;-4.22;100.00;96473.03;5039872;28;20521;-79
2022/01/07 01:32:30;;;;;;;15.77;7.07;;;;;;;-4.23;100.00;96479.03;4995658;28;20486;-80
2022/01/07 01:34:55;;;;;;;17.30;6.23;;;;;;;-4.17;100.00;96468.50;5019307;28;20452;-79
2022/01/07 01:37:21;;;;;;;16.33;7.20;;;;;;;-4.22;100.00;96475.59;5017769;28;20025;-79
2022/01/07 01:39:47;;;;;;;14.33;5.80;;;;;;;-4.22;100.00;96461.91;5009553;28;20037;-79
2022/01/07 01:42:13;;;;;;;13.67;5.43;;;;;;;-4.25;100.00;96468.00;5026081;28;20558;-78
2022/01/07 01:44:39;;;;;;;14.50;5.73;;;;;;;-4.15;100.00;96463.34;5030035;28;20400;-78
2022/01/07 01:47:05;;;;;;;16.13;5.60;;;;;;;-4.15;100.00;96455.63;5030577;28;20479;-79
2022/01/07 01:49:31;;;;;;;17.43;6.37;;;;;;;-4.16;100.00;96449.63;5011440;28;20036;-78
2022/01/07 01:51:56;;;;;;;12.73;5.50;;;;;;;-4.20;100.00;96444.69;5013288;28;21016;-79
2022/01/07 01:54:22;;;;;;;18.47;7.47;;;;;;;-4.27;100.00;96446.69;5025839;28;20759;-79
2022/01/07 01:56:48;;;;;;;14.10;5.97;;;;;;;-4.28;100.00;96450.16;5016697;28;20029;-79
2022/01/07 02:03:01;;;;;;;19.97;8.73;;;;;;;-4.35;100.00;96441.03;5023537;28;20040;-79
2022/01/07 02:05:27;;;;;;;21.50;8.97;;;;;;;-4.39;100.00;96440.34;5010201;28;20464;-79
2022/01/07 02:07:53;;;;;;;18.30;6.93;;;;;;;-4.34;100.00;96445.28;5020680;28;20022;-78
2022/01/07 02:10:20;;;;;;;17.77;6.10;;;;;;;-4.34;100.00;96433.25;5011655;28;20060;-79
2022/01/07 02:12:46;;;;;;;16.53;6.27;;;;;;;-4.36;100.00;96436.78;5026231;28;20455;-79
2022/01/07 02:15:14;;;;;;;17.70;7.33;;;;;;;-4.42;100.00;96426.81;5032976;28;20460;-79
2022/01/07 02:17:41;;;;;;;18.77;8.13;;;;;;;-4.42;100.00;96417.38;5029168;28;20479;-79
2022/01/07 02:20:11;;;;;;;24.80;9.83;;;;;;;-4.39;100.00;96418.94;5030270;28;20499;-79
2022/01/07 02:22:36;;;;;;;15.07;7.30;;;;;;;-4.36;100.00;96411.13;5019629;28;20468;-79
2022/01/07 02:25:04;;;;;;;15.87;6.43;;;;;;;-4.29;100.00;96417.69;5013840;28;20451;-79
2022/01/07 02:27:30;;;;;;;17.60;6.30;;;;;;;-4.15;100.00;96414.53;5025539;28;20033;-79
2022/01/07 02:30:00;;;;;;;18.17;6.93;;;;;;;-4.22;100.00;96419.09;5009087;28;20468;-79
2022/01/07 02:32:25;;;;;;;14.60;7.07;;;;;;;-4.25;100.00;96414.09;5013799;28;20487;-79
2022/01/07 02:34:51;;;;;;;11.77;5.27;;;;;;;-4.21;100.00;96412.22;4998019;28;21219;-79
2022/01/07 02:37:17;;;;;;;19.83;6.40;;;;;;;-4.28;100.00;96424.47;5022205;28;20615;-78
2022/01/07 02:39:45;;;;;;;16.67;5.40;;;;;;;-4.31;100.00;96417.75;5014767;28;20037;-79
2022/01/07 02:42:11;;;;;;;14.00;5.80;;;;;;;-4.30;100.00;96408.28;5022992;28;20061;-79
2022/01/07 02:44:37;;;;;;;13.60;5.90;;;;;;;-4.38;100.00;96412.94;5001791;28;21196;-79
2022/01/07 02:47:03;;;;;;;15.60;5.77;;;;;;;-4.46;100.00;96404.69;5035207;28;20033;-79
2022/01/07 02:49:28;;;;;;;11.53;5.60;;;;;;;-4.45;100.00;96403.81;5006110;28;20395;-79
2022/01/07 02:51:54;;;;;;;16.47;6.27;;;;;;;-4.53;100.00;96391.28;5029773;28;20460;-79
2022/01/07 02:54:20;;;;;;;14.13;5.67;;;;;;;-4.60;100.00;96398.41;5013721;28;20021;-79
2022/01/07 02:56:46;;;;;;;14.17;5.57;;;;;;;-4.57;100.00;96395.72;5022278;28;20536;-79
2022/01/07 02:59:11;;;;;;;14.37;5.57;;;;;;;-4.59;100.00;96389.81;5039385;28;20086;-80
2022/01/07 03:01:38;;;;;;;16.50;5.90;;;;;;;-4.47;100.00;96392.78;5040689;28;20056;-79
2022/01/07 03:04:05;;;;;;;13.30;5.03;;;;;;;-4.39;100.00;96393.28;5040448;28;20078;-79
2022/01/07 03:06:31;;;;;;;11.43;5.37;;;;;;;-4.33;100.00;96385.31;5033334;28;20510;-79
2022/01/07 03:08:57;;;;;;;22.97;6.40;;;;;;;-4.31;100.00;96381.78;4999848;28;20554;-79
2022/01/07 03:11:23;;;;;;;13.07;4.30;;;;;;;-4.29;100.00;96381.75;5041323;28;20460;-79
2022/01/07 03:13:49;;;;;;;15.70;4.80;;;;;;;-4.26;100.00;96384.16;5031180;28;20900;-79
2022/01/07 03:16:15;;;;;;;14.27;5.30;;;;;;;-4.28;100.00;96386.81;5021514;28;20456;-79
2022/01/07 03:18:41;;;;;;;21.93;6.00;;;;;;;-4.25;100.00;96388.41;5016638;28;20029;-79
2022/01/07 03:21:07;;;;;;;18.93;5.87;;;;;;;-4.29;100.00;96384.31;5017259;28;20061;-79
2022/01/07 03:23:33;;;;;;;21.40;5.23;;;;;;;-4.31;100.00;96381.78;5032527;28;20466;-79
2022/01/07 03:25:59;;;;;;;16.27;4.63;;;;;;;-4.37;100.00;96378.66;5039990;28;20514;-79
2022/01/07 03:28:25;;;;;;;16.87;5.57;;;;;;;-4.34;100.00;96368.25;5035406;28;20471;-79
2022/01/07 03:30:51;;;;;;;10.87;4.37;;;;;;;-4.38;100.00;96369.28;5044184;28;20868;-79
2022/01/07 03:33:19;;;;;;;16.33;5.37;;;;;;;-4.37;100.00;96366.66;5036742;28;20463;-79
2022/01/07 03:35:45;;;;;;;15.97;5.30;;;;;;;-4.32;100.00;96374.16;5038489;28;20467;-79
2022/01/07 03:38:11;;;;;;;15.33;7.33;;;;;;;-4.34;100.00;96381.09;5014979;28;20571;-79
2022/01/07 03:40:37;;;;;;;15.50;5.60;;;;;;;-4.29;100.00;96376.59;5018625;28;20452;-79
2022/01/07 03:43:03;;;;;;;16.90;5.90;;;;;;;-4.30;100.00;96380.88;5024721;28;20550;-79
2022/01/07 03:45:29;;;;;;;13.17;6.27;;;;;;;-4.30;100.00;96378.31;5040732;28;20029;-79
2022/01/07 03:47:55;;;;;;;15.03;7.07;;;;;;;-4.34;100.00;96371.66;5041885;28;20553;-79
2022/01/07 03:50:25;;;;;;;13.47;6.47;;;;;;;-4.37;100.00;96383.78;5034300;28;20576;-79
2022/01/07 03:52:52;;;;;;;13.43;6.80;;;;;;;-4.36;100.00;96386.31;5032094;28;20456;-79
2022/01/07 03:55:21;;;;;;;15.97;6.60;;;;;;;-4.39;100.00;96377.88;5033249;28;20484;-79
2022/01/07 03:57:47;;;;;;;12.80;6.40;;;;;;;-4.38;100.00;96385.53;5044254;28;20853;-79
2022/01/07 04:00:38;;;;;;;15.00;6.80;;;;;;;-4.36;100.00;96377.75;5011697;28;20842;-79
2022/01/07 04:03:07;;;;;;;16.03;6.83;;;;;;;-4.35;100.00;96380.25;5010345;28;20487;-79
2022/01/07 04:05:33;;;;;;;14.70;6.57;;;;;;;-4.40;100.00;96374.47;5013441;28;20544;-79
2022/01/07 04:07:59;;;;;;;15.40;6.30;;;;;;;-4.43;100.00;96382.31;5014893;28;21076;-79
2022/01/07 04:10:25;;;;;;;15.87;7.50;;;;;;;-4.39;100.00;96380.44;5002620;28;20033;-79
2022/01/07 04:12:51;;;;;;;14.83;7.13;;;;;;;-4.43;100.00;96377.16;5010834;28;20563;-79
2022/01/07 04:19:03;;;;;;;13.57;6.67;;;;;;;-4.39;100.00;96372.72;5031851;28;20529;-78
2022/01/07 04:21:29;;;;;;;12.10;6.33;;;;;;;-4.49;100.00;96377.44;5015378;28;20493;-78
2022/01/07 04:23:55;;;;;;;14.70;6.73;;;;;;;-4.43;100.00;96374.59;5006527;28;20032;-79
2022/01/07 04:26:20;;;;;;;14.30;6.40;;;;;;;-4.43;100.00;96373.78;5032237;28;20037;-79
2022/01/07 04:28:59;;;;;;;12.00;5.97;;;;;;;-4.52;100.00;96373.28;5035864;28;20155;-79
2022/01/07 04:31:25;;;;;;;11.07;6.00;;;;;;;-4.58;100.00;96383.78;5040366;28;20166;-79
2022/01/07 04:33:53;;;;;;;11.37;6.10;;;;;;;-4.56;100.00;96381.16;5027180;28;20566;-79
2022/01/07 04:36:18;;;;;;;14.87;6.70;;;;;;;-4.60;100.00;96380.44;5031794;28;20092;-79
2022/01/07 04:38:46;;;;;;;15.03;6.07;;;;;;;-4.62;100.00;96384.81;4995666;28;20630;-79
2022/01/07 04:41:13;;;;;;;12.73;6.60;;;;;;;-4.56;100.00;96386.28;5021066;28;20128;-79
2022/01/07 04:43:39;;;;;;;11.73;6.20;;;;;;;-4.49;100.00;96385.16;5042073;28;20462;-79
2022/01/07 04:46:05;;;;;;;17.50;6.43;;;;;;;-4.53;100.00;96381.88;5032963;28;20472;-79
2022/01/07 04:48:31;;;;;;;14.00;6.17;;;;;;;-4.51;100.00;96386.94;5036345;28;20033;-79
2022/01/07 04:50:57;;;;;;;16.13;6.60;;;;;;;-4.53;100.00;96384.44;5012160;28;20464;-79
2022/01/07 04:53:23;;;;;;;16.07;7.50;;;;;;;-4.59;100.00;96379.56;5037194;28;20490;-79
2022/01/07 04:55:48;;;;;;;14.47;6.40;;;;;;;-4.67;100.00;96368.75;5032250;28;20075;-79
2022/01/07 04:58:15;;;;;;;12.63;5.87;;;;;;;-4.62;100.00;96369.41;5037767;28;20032;-79
2022/01/07 05:00:42;;;;;;;16.20;7.30;;;;;;;-4.62;100.00;96369.41;5036062;28;20487;-79
2022/01/07 05:03:09;;;;;;;12.47;6.33;;;;;;;-4.65;100.00;96369.53;5020212;28;20495;-79
2022/01/07 05:05:35;;;;;;;16.27;6.40;;;;;;;-4.54;100.00;96359.66;5031380;28;20478;-79
2022/01/07 05:08:02;;;;;;;15.73;6.47;;;;;;;-4.56;100.00;96376.88;5013696;28;21038;-79
2022/01/07 05:10:28;;;;;;;14.80;7.57;;;;;;;-4.53;100.00;96366.47;5039766;28;20482;-79
2022/01/07 05:12:54;;;;;;;14.93;7.53;;;;;;;-4.50;100.00;96371.47;5033837;28;20456;-79
2022/01/07 05:15:45;;;;;;;12.87;5.63;;;;;;;-4.50;100.00;96373.19;5020240;28;20466;-79
2022/01/07 05:18:10;;;;;;;12.17;5.73;;;;;;;-4.48;100.00;96366.28;5031671;28;20029;-79
2022/01/07 05:20:36;;;;;;;15.07;6.87;;;;;;;-4.54;100.00;96372.50;5028114;28;20494;-79
2022/01/07 05:23:02;;;;;;;14.30;6.00;;;;;;;-4.51;100.00;96372.38;5011895;28;20040;-79
2022/01/07 05:25:28;;;;;;;13.50;6.50;;;;;;;-4.57;100.00;96366.66;5006051;28;20120;-79
2022/01/07 05:28:18;;;;;;;16.67;6.80;;;;;;;-4.57;100.00;96367.47;5005663;28;20554;-79
2022/01/07 05:30:44;;;;;;;15.87;7.53;;;;;;;-4.55;100.00;96375.13;5021783;28;20060;-79
2022/01/07 05:33:11;;;;;;;15.53;6.43;;;;;;;-4.54;100.00;96376.78;5036586;28;20448;-79
2022/01/07 05:35:37;;;;;;;14.30;7.37;;;;;;;-4.43;100.00;96381.47;5019817;28;20036;-79
2022/01/07 05:38:03;;;;;;;17.37;7.03;;;;;;;-4.44;100.00;96378.06;5038354;28;20978;-79
2022/01/07 05:40:29;;;;;;;14.33;6.93;;;;;;;-4.43;100.00;96373.78;5036793;28;20036;-79
2022/01/07 05:42:54;;;;;;;15.63;6.70;;;;;;;-4.46;100.00;96379.88;5036431;28;20031;-79
2022/01/07 05:45:20;;;;;;;15.77;7.47;;;;;;;-4.41;100.00;96382.25;5038631;28;20029;-79
2022/01/07 05:47:46;;;;;;;12.20;6.50;;;;;;;-4.40;100.00;96378.78;5023124;28;20029;-79
2022/01/07 05:50:13;;;;;;;14.40;6.87;;;;;;;-4.36;100.00;96377.75;5010901;28;20033;-79
2022/01/07 05:52:42;;;;;;;14.93;6.93;;;;;;;-4.40;100.00;96383.91;5015126;28;20041;-79
2022/01/07 05:55:08;;;;;;;15.23;7.37;;;;;;;-4.41;100.00;96374.56;5031211;28;20472;-79
2022/01/07 05:57:35;;;;;;;15.37;7.97;;;;;;;-4.41;100.00;96369.41;5019962;28;20483;-79
2022/01/07 06:00:03;;;;;;;20.93;9.83;;;;;;;-4.38;100.00;96366.72;5027579;28;20036;-79
2022/01/07 06:02:38;;;;;;;20.10;9.83;;;;;;;-4.39;100.00;96371.03;5019607;28;20424;-79
2022/01/07 06:05:04;;;;;;;19.70;9.63;;;;;;;-4.38;100.00;96366.72;5022692;28;20540;-88
2022/01/07 06:07:30;;;;;;;19.80;9.23;;;;;;;-4.41;100.00;96377.94;5013186;28;20563;-89
2022/01/07 06:09:57;;;;;;;24.33;10.57;;;;;;;-4.44;100.00;96374.69;5022472;28;21172;-89
2022/01/07 06:12:40;;;;;;;26.93;11.47;;;;;;;-4.44;100.00;96377.25;5024274;28;20480;-89
2022/01/07 06:15:09;;;;;;;16.60;6.90;;;;;;;-4.45;100.00;96373.03;5035792;28;20467;-88
2022/01/07 06:17:36;;;;;;;28.57;12.47;;;;;;;-4.38;100.00;96366.72;5013364;28;20025;-88
2022/01/07 06:20:03;;;;;;;21.03;8.77;;;;;;;-4.39;100.00;96375.31;5013127;28;20499;-89
2022/01/07 06:22:36;;;;;;;18.97;9.43;;;;;;;-4.46;100.00;96377.31;5020817;28;20487;-89
2022/01/07 06:25:03;;;;;;;;;;;;;;;-4.46;100.00;96384.16;5042388;28;20562;-89
2022/01/07 06:27:28;;;;;;;27.97;10.07;;;;;;;-4.45;100.00;96389.25;5038443;28;19917;-89
2022/01/07 06:29:56;;;;;;;19.50;8.73;;;;;;;-4.48;100.00;96383.41;5026965;28;21092;-89
2022/01/07 06:32:25;;;;;;;17.83;9.73;;;;;;;-4.48;100.00;96386.81;5014369;28;20025;-89
2022/01/07 06:34:51;;;;;;;22.00;9.47;;;;;;;-4.51;100.00;96390.31;5029171;28;20507;-89
2022/01/07 06:37:17;;;;;;;22.03;11.30;;;;;;;-4.46;100.00;96379.88;5029470;28;20471;-89
2022/01/07 06:39:43;;;;;;;22.43;11.00;;;;;;;-4.51;100.00;96390.31;5032772;28;21298;-89
2022/01/07 06:42:10;;;;;;;24.67;11.17;;;;;;;-4.57;100.00;96388.00;4995368;28;20042;-89
2022/01/07 06:44:36;;;;;;;26.57;11.77;;;;;;;-4.58;100.00;96396.63;5034459;28;20550;-89
2022/01/07 06:47:03;;;;;;;23.90;11.20;;;;;;;-4.56;100.00;96387.13;5035601;28;20500;-89
2022/01/07 06:49:29;;;;;;;23.63;10.13;;;;;;;-4.61;100.00;96383.91;5038199;28;20480;-89
2022/01/07 06:51:59;;;;;;;24.10;10.80;;;;;;;-4.60;100.00;96383.00;5014674;28;21076;-89
2022/01/07 06:54:27;;;;;;;22.30;10.23;;;;;;;-4.59;100.00;96383.88;5039233;28;20025;-89
2022/01/07 06:56:53;;;;;;;20.97;10.77;;;;;;;-4.60;100.00;96383.00;5038854;28;20830;-89
2022/01/07 06:59:18;;;;;;;23.50;10.03;;;;;;;-4.56;100.00;96382.00;5037211;28;20456;-88
2022/01/07 07:01:47;;;;;;;19.90;9.23;;;;;;;-4.60;100.00;96377.03;5040971;28;20040;-89
2022/01/07 07:04:23;;;;;;;21.83;9.20;;;;;;;-4.60;100.00;96374.47;5008063;28;20159;-89
2022/01/07 07:06:49;;;;;;;20.93;9.30;;;;;;;-4.49;100.00;96369.75;5021157;28;20492;-89
2022/01/07 07:09:16;;;;;;;19.43;9.87;;;;;;;-4.51;100.00;96351.84;5011973;28;20474;-88
2022/01/07 07:11:48;;;;;;;23.30;10.70;;;;;;;-4.52;100.00;96362.19;5025280;28;20044;-88
2022/01/07 07:14:14;;;;;;;19.80;9.70;;;;;;;-4.44;100.00;96361.84;5032479;28;20468;-88
2022/01/07 07:16:41;;;;;;;23.53;10.83;;;;;;;-4.44;100.00;96369.53;5016808;28;20551;-88
2022/01/07 07:19:06;;;;;;;25.47;10.30;;;;;;;-4.48;100.00;96360.31;5016432;28;20072;-88
2022/01/07 07:21:32;;;;;;;24.07;10.80;;;;;;;-4.42;100.00;96363.44;5042251;28;20472;-88
2022/01/07 07:23:58;;;;;;;23.80;11.23;;;;;;;-4.40;100.00;96358.25;5039472;28;20036;-88
2022/01/07 07:26:23;;;;;;;26.67;12.70;;;;;;;-4.36;100.00;96359.78;5048363;28;20036;-88
2022/01/07 07:28:50;;;;;;;22.60;11.33;;;;;;;-4.36;100.00;96364.91;5048550;28;20052;-88
2022/01/07 07:31:18;;;;;;;23.13;10.23;;;;;;;-4.39;100.00;96353.06;5039027;28;20060;-88
2022/01/07 07:36:31;;;;;;;23.17;10.83;;;;;;;-4.30;100.00;96352.63;5030531;28;20455;-89
2022/01/07 07:39:01;;;;;;;21.50;10.53;;;;;;;-4.30;100.00;96349.25;5042240;28;21024;-88
2022/01/07 07:41:31;;;;;;;22.57;10.17;;;;;;;-4.23;100.00;96344.69;5029875;28;20075;-88
2022/01/07 07:43:57;;;;;;;23.30;11.30;;;;;;;-4.21;100.00;96348.84;5015101;28;21092;-89
2022/01/07 07:46:25;;;;;;;27.47;12.47;;;;;;;-4.15;100.00;96347.75;5026696;28;20483;-89
2022/01/07 07:48:51;;;;;;;29.87;12.67;;;;;;;-4.14;100.00;96339.97;5024054;28;21416;-88
2022/01/07 07:51:18;;;;;;;19.50;9.40;;;;;;;-4.06;100.00;96337.94;5032279;28;20501;-88
2022/01/07 07:53:45;;;;;;;20.33;9.03;;;;;;;-3.95;100.00;96342.59;5056046;28;20476;-88
2022/01/07 07:56:15;;;;;;;21.10;9.20;;;;;;;-3.84;100.00;96336.97;5065430;28;20551;-88
2022/01/07 07:58:42;;;;;;;17.27;7.97;;;;;;;-3.75;100.00;96344.25;5033000;28;20543;-88
2022/01/07 08:01:08;;;;;;;16.70;7.97;;;;;;;-3.67;100.00;96331.88;5020487;28;20452;-88
2022/01/07 08:03:34;;;;;;;22.17;8.67;;;;;;;-3.67;100.00;96329.31;5021485;28;20522;-89
2022/01/07 08:06:00;;;;;;;18.77;8.47;;;;;;;-3.64;100.00;96321.47;5034148;28;20029;-89
2022/01/07 08:08:26;;;;;;;19.13;9.90;;;;;;;-3.60;100.00;96324.72;5052171;28;20044;-88
2022/01/07 08:10:56;;;;;;;19.47;8.67;;;;;;;-3.57;100.00;96310.00;5051517;28;20029;-89
2022/01/07 08:13:30;;;;;;;17.90;9.87;;;;;;;-3.28;100.00;96315.50;5027230;28;20463;-89
2022/01/07 08:16:02;;;;;;;26.70;11.97;;;;;;;-3.22;100.00;96297.22;5037514;28;20543;-89
2022/01/07 08:18:29;;;;;;;17.67;9.87;;;;;;;-3.12;100.00;96298.44;5022674;28;20475;-88
2022/01/07 08:20:57;;;;;;;19.93;8.07;;;;;;;-3.08;100.00;96302.53;5027299;28;20448;-88
2022/01/07 08:23:23;;;;;;;21.10;8.20;;;;;;;-2.94;100.00;96301.03;5033164;28;20464;-88
2022/01/07 08:25:49;;;;;;;18.27;7.90;;;;;;;-2.54;100.00;96292.13;5041244;28;21116;-89
2022/01/07 08:28:17;;;;;;;17.73;9.43;;;;;;;-1.85;100.00;96290.28;5032126;28;20029;-89
2022/01/07 08:31:01;;;;;;;16.00;8.10;;;;;;;-1.51;100.00;96276.38;5040324;28;20444;-88
2022/01/07 08:36:31;;;;;;;16.47;7.90;;;;;;;-1.73;100.00;96271.59;5037514;28;20199;-87
2022/01/07 08:38:58;;;;;;;16.23;7.90;;;;;;;-1.87;100.00;96266.34;5039989;28;20452;-87
2022/01/07 08:41:28;;;;;;;17.17;9.00;;;;;;;-1.97;100.00;96266.00;5026988;28;20482;-87
2022/01/07 08:43:54;;;;;;;21.27;9.90;;;;;;;-2.00;100.00;96268.75;5021043;28;20452;-88
2022/01/07 08:46:20;;;;;;;16.27;8.43;;;;;;;-1.90;100.00;96265.59;5017898;28;20440;-87
2022/01/07 08:48:46;;;;;;;15.30;8.77;;;;;;;-1.93;100.00;96270.06;5037732;28;20451;-85
2022/01/07 08:51:12;;;;;;;15.80;8.60;;;;;;;-2.07;100.00;96269.97;5038577;28;20451;-88
2022/01/07 08:53:38;;;;;;;15.93;8.50;;;;;;;-2.00;100.00;96273.91;5027894;28;20035;-87
2022/01/07 08:56:05;;;;;;;21.27;10.80;;;;;;;-1.99;100.00;96270.41;5043270;28;20028;-88
2022/01/07 08:58:31;;;;;;;29.30;13.83;;;;;;;-1.98;100.00;96269.47;5015590;28;20049;-86
2022/01/07 09:00:57;;;;;;;20.07;9.57;;;;;;;-2.00;100.00;96271.31;5036399;28;20986;-87
2022/01/07 09:03:24;;;;;;;16.13;8.90;;;;;;;-2.03;100.00;96274.06;5016965;28;20025;-87
2022/01/07 09:05:49;;;;;;;14.63;9.27;;;;;;;-2.00;100.00;96273.91;5037685;28;20041;-88
2022/01/07 09:08:15;;;;;;;14.77;8.13;;;;;;;-1.96;100.00;96271.06;5017394;28;20491;-88
2022/01/07 09:10:42;;;;;;;18.07;9.00;;;;;;;-1.93;100.00;96277.81;5036004;28;20036;-88
2022/01/07 09:13:09;;;;;;;23.33;11.30;;;;;;;-1.97;100.00;96271.16;5019481;28;20931;-87
2022/01/07 09:15:35;;;;;;;18.50;9.00;;;;;;;-1.93;100.00;96272.66;5029612;28;20502;-88
2022/01/07 09:18:09;;;;;;;19.60;9.83;;;;;;;-2.02;100.00;96262.81;5010697;28;20535;-88
2022/01/07 09:20:39;;;;;;;17.93;9.80;;;;;;;-1.95;100.00;96264.16;5035187;28;20471;-88
2022/01/07 09:23:06;;;;;;;17.37;9.50;;;;;;;-1.98;100.00;96259.16;5028618;28;20456;-87
2022/01/07 09:25:32;;;;;;;18.53;9.87;;;;;;;-1.92;100.00;96266.56;5016978;28;20443;-88
2022/01/07 09:27:58;;;;;;;18.23;10.77;;;;;;;-1.90;100.00;96275.06;5023984;28;21014;-88
2022/01/07 09:30:27;;;;;;;18.73;10.40;;;;;;;-1.88;100.00;96268.06;5030881;28;20459;-88
2022/01/07 09:32:54;;;;;;;18.97;10.53;;;;;;;-1.75;100.00;96269.06;5011917;28;20034;-88
2022/01/07 09:35:24;;;;;;;23.23;10.17;;;;;;;-1.69;100.00;96266.16;5024393;28;21198;-88
2022/01/07 09:37:50;;;;;;;18.00;10.10;;;;;;;-1.71;100.00;96265.44;5011429;28;20554;-88
2022/01/07 09:40:17;;;;;;;16.73;10.40;;;;;;;-1.56;100.00;96270.66;5022299;28;20458;-87
2022/01/07 09:43:13;;;;;;;20.47;11.33;;;;;;;-1.44;100.00;96267.41;5004522;28;20498;-88
2022/01/07 09:45:39;;;;;;;21.47;11.00;;;;;;;-1.06;100.00;96262.66;5004439;28;20528;-88
2022/01/07 09:48:08;;;;;;;17.77;10.00;;;;;;;-0.95;100.00;96262.88;5013519;28;20877;-87
2022/01/07 09:50:36;;;;;;;17.90;10.43;;;;;;;-1.17;100.00;96256.44;5038182;28;20509;-88
2022/01/07 09:53:35;;;;;;;19.37;10.97;;;;;;;-1.28;100.00;96257.03;5039046;28;20456;-86
2022/01/07 09:56:38;;;;;;;19.80;11.33;;;;;;;-1.25;100.00;96249.97;5036787;28;20484;-88
2022/01/07 09:59:31;;;;;;;17.97;10.17;;;;;;;-1.22;100.00;96244.63;5045107;28;20440;-88
2022/01/07 10:05:22;;;;;;;16.57;9.93;;;;;;;-1.09;100.00;96233.63;5027749;28;20471;-88
2022/01/07 10:08:04;;;;;;;19.43;10.57;;;;;;;-0.97;100.00;96233.75;5012445;28;20464;-88
2022/01/07 10:10:37;;;;;;;26.10;14.50;;;;;;;-0.95;100.00;96236.22;5019350;28;20447;-88
2022/01/07 10:13:09;;;;;;;22.73;13.17;;;;;;;-0.94;100.00;96232.72;4993293;28;20826;-88
2022/01/07 10:15:50;;;;;;;22.53;12.60;;;;;;;-0.66;100.00;96225.97;5011293;28;20456;-87
2022/01/07 10:22:16;;;;;;;18.13;10.30;;;;;;;-0.27;100.00;96227.88;5036041;28;20419;-87
2022/01/07 10:25:24;;;;;;;17.80;10.80;;;;;;;-0.36;100.00;96229.28;5003873;28;20452;-87
2022/01/07 10:28:36;;;;;;;17.47;10.10;;;;;;;-0.50;100.00;96226.72;5032007;28;20506;-87
2022/01/07 10:31:26;;;;;;;18.50;10.47;;;;;;;-0.47;100.00;96218.75;5001287;28;20471;-87
2022/01/07 10:33:53;;;;;;;15.10;9.33;;;;;;;-0.60;100.00;96212.69;5007892;28;20476;-87
2022/01/07 10:36:21;;;;;;;16.43;9.50;;;;;;;-0.61;100.00;96205.84;5029816;28;20495;-86
2022/01/07 10:38:51;;;;;;;18.40;8.47;;;;;;;-0.60;100.00;96207.53;5012631;28;20460;-87
2022/01/07 10:41:18;;;;;;;16.13;9.00;;;;;;;-0.62;100.00;96201.59;5038449;28;20463;-87
2022/01/07 10:43:44;;;;;;;20.93;12.00;;;;;;;-0.59;100.00;96193.69;5026318;28;21059;-87
2022/01/07 10:46:27;;;;;;;15.23;8.53;;;;;;;-0.64;100.00;96185.38;5018025;28;20468;-87
2022/01/07 10:49:01;;;;;;;15.35;7.93;;;;;;;-0.63;100.00;96194.78;5032802;28;20033;-87
2022/01/07 10:51:30;;;;;;;13.50;8.63;;;;;;;-0.66;100.00;96171.72;5043673;28;20048;-86
2022/01/07 10:53:58;;;;;;;14.47;9.03;;;;;;;-0.69;100.00;96184.81;5039454;28;20478;-86
2022/01/07 10:56:36;;;;;;;15.33;9.17;;;;;;;-0.64;100.00;96180.19;5034684;28;20463;-86
2022/01/07 10:59:07;;;;;;;17.47;10.00;;;;;;;-0.62;100.00;96183.53;5016214;28;20463;-86
2022/01/07 11:02:06;;;;;;;19.23;9.10;;;;;;;-0.62;100.00;96186.13;5037370;28;20526;-87
2022/01/07 11:04:32;;;;;;;15.03;8.53;;;;;;;-0.66;100.00;96179.47;4989911;28;20555;-87
2022/01/07 11:07:02;;;;;;;13.10;8.67;;;;;;;-0.64;100.00;96170.69;5040321;28;21129;-87
2022/01/07 11:09:28;;;;;;;14.83;8.77;;;;;;;-0.63;100.00;96179.31;5032495;28;20038;-87
2022/01/07 11:11:57;;;;;;;14.83;7.83;;;;;;;-0.65;100.00;96175.97;5046983;28;21293;-87
2022/01/07 11:14:34;;;;;;;15.73;7.90;;;;;;;-0.62;100.00;96175.78;5043142;28;20036;-88
2022/01/07 11:17:22;;;;;;;13.33;8.20;;;;;;;-0.62;100.00;96166.28;5042237;28;20468;-87
2022/01/07 11:19:54;;;;;;;13.43;7.83;;;;;;;-0.61;100.00;96164.53;5014040;28;20494;-87
2022/01/07 11:22:22;;;;;;;15.03;8.13;;;;;;;-0.56;100.00;96159.91;5019089;28;20460;-88
2022/01/07 11:24:50;;;;;;;13.20;7.50;;;;;;;-0.59;100.00;96160.09;5021626;28;20466;-87
2022/01/07 11:27:50;;;;;;;15.13;7.93;;;;;;;-0.49;100.00;96161.22;5037818;28;21016;-88
2022/01/07 11:30:18;;;;;;;12.27;7.47;;;;;;;-0.55;100.00;96157.22;5018190;28;20452;-88
2022/01/07 11:32:48;;;;;;;13.63;7.40;;;;;;;-0.55;100.00;96153.81;5060626;28;20439;-88
2022/01/07 11:35:17;;;;;;;14.60;8.40;;;;;;;-0.55;100.00;96149.47;5066808;28;20496;-88
2022/01/07 11:37:48;;;;;;;14.47;7.77;;;;;;;-0.50;100.00;96152.63;5043121;28;20464;-89
2022/01/07 11:40:32;;;;;;;15.50;8.37;;;;;;;-0.43;100.00;96150.50;5032705;28;20463;-89
2022/01/07 11:43:06;;;;;;;17.25;9.07;;;;;;;-0.44;100.00;96148.00;5046243;28;21175;-90
2022/01/07 11:45:41;;;;;;;;;;;;;;;-0.46;100.00;96145.53;5036812;28;20105;-89